Time;durP1;ratioP1;P1;durP2;ratioP2;P2;SDS_P1;SDS_P2;PMS_P1;PMS_P2;Temp;Humidity;BMP_temperature;BMP_pressure;BME280_temperature;BME280_humidity;BME280_pressure;Samples;Min_cycle;Max_cycle;Signal;HPM_P1;HPM_P2
2022/03/23 00:01:31;;;;;;;26.90;16.45;;;;;;;;;;5085655;28;20106;-61
2022/03/23 00:03:57;;;;;;;24.50;16.73;;;;;;;;;;5088141;28;20431;-61
2022/03/23 00:06:24;;;;;;;28.48;16.95;;;;;;;;;;5084563;28;20139;-61
2022/03/23 00:08:50;;;;;;;24.90;15.75;;;;;;;;;;5087655;28;20044;-61
2022/03/23 00:11:17;;;;;;;24.92;16.33;;;;;;;;;;5089610;28;20044;-61
2022/03/23 00:13:43;;;;;;;24.60;16.08;;;;;;;;;;5085868;28;20035;-61
2022/03/23 00:16:09;;;;;;;27.13;17.10;;;;;;;;;;5087301;28;20036;-61
2022/03/23 00:18:35;;;;;;;26.02;16.77;;;;;;;;;;5088915;28;20402;-61
2022/03/23 00:21:01;;;;;;;24.65;17.50;;;;;;;;;;5090341;28;20036;-61
2022/03/23 00:23:27;;;;;;;27.30;16.40;;;;;;;;;;5085848;28;20044;-61
2022/03/23 00:25:54;;;;;;;25.38;15.93;;;;;;;;;;5082865;28;20052;-61
2022/03/23 00:28:20;;;;;;;25.85;16.70;;;;;;;;;;5087533;28;20078;-61
2022/03/23 00:30:48;;;;;;;31.00;17.98;;;;;;;;;;5087198;28;20635;-61
2022/03/23 00:33:14;;;;;;;32.53;17.60;;;;;;;;;;5090701;28;20043;-61
2022/03/23 00:35:41;;;;;;;29.30;18.33;;;;;;;;;;5085158;28;20388;-61
2022/03/23 00:38:07;;;;;;;30.65;19.25;;;;;;;;;;5087864;28;20032;-61
2022/03/23 00:40:33;;;;;;;27.75;18.02;;;;;;;;;;5085406;28;20040;-61
2022/03/23 00:43:01;;;;;;;26.83;17.25;;;;;;;;;;5086074;28;20901;-61
2022/03/23 00:45:27;;;;;;;27.80;17.45;;;;;;;;;;5087550;28;20051;-61
2022/03/23 00:47:53;;;;;;;31.55;17.10;;;;;;;;;;5087552;28;20131;-61
2022/03/23 00:50:19;;;;;;;26.85;18.45;;;;;;;;;;5087968;28;20032;-61
2022/03/23 00:52:47;;;;;;;29.10;18.63;;;;;;;;;;5088347;28;20047;-61
2022/03/23 00:55:14;;;;;;;29.38;18.73;;;;;;;;;;5085050;28;20047;-61
2022/03/23 00:57:40;;;;;;;30.50;17.63;;;;;;;;;;5087671;28;20044;-62
2022/03/23 01:00:10;;;;;;;29.20;18.05;;;;;;;;;;5087440;28;20393;-61
2022/03/23 01:02:36;;;;;;;28.75;18.23;;;;;;;;;;5084778;28;20028;-61
2022/03/23 01:05:03;;;;;;;28.58;18.27;;;;;;;;;;5088548;28;20035;-61
2022/03/23 01:07:29;;;;;;;25.23;16.63;;;;;;;;;;5089528;28;20067;-61
2022/03/23 01:09:55;;;;;;;28.10;17.23;;;;;;;;;;5085283;28;20039;-61
2022/03/23 01:12:22;;;;;;;30.55;17.83;;;;;;;;;;5084320;28;20391;-61
2022/03/23 01:14:48;;;;;;;26.95;17.17;;;;;;;;;;5084305;28;20044;-61
2022/03/23 01:17:14;;;;;;;32.47;18.95;;;;;;;;;;5076259;28;20036;-61
2022/03/23 01:19:40;;;;;;;29.52;19.27;;;;;;;;;;5088661;28;20119;-61
2022/03/23 01:22:06;;;;;;;31.55;19.02;;;;;;;;;;5090183;28;20051;-61
2022/03/23 01:24:33;;;;;;;33.92;20.10;;;;;;;;;;5084105;28;20076;-61
2022/03/23 01:27:00;;;;;;;32.67;20.17;;;;;;;;;;5084001;28;20128;-61
2022/03/23 01:29:27;;;;;;;29.60;18.38;;;;;;;;;;5084678;28;20189;-60
2022/03/23 01:31:52;;;;;;;30.55;19.50;;;;;;;;;;5089025;28;20032;-61
2022/03/23 01:34:19;;;;;;;31.80;20.05;;;;;;;;;;5086956;28;20047;-61
2022/03/23 01:36:45;;;;;;;34.15;20.50;;;;;;;;;;5088856;28;20044;-61
2022/03/23 01:39:11;;;;;;;28.10;18.98;;;;;;;;;;5088266;28;20070;-61
2022/03/23 01:41:38;;;;;;;30.42;19.45;;;;;;;;;;5082452;28;20083;-61
2022/03/23 01:44:13;;;;;;;31.75;19.45;;;;;;;;;;5080489;28;20036;-61
2022/03/23 01:47:02;;;;;;;32.25;18.67;;;6.90;99.90;;;;;;5085872;28;20159;-61
2022/03/23 01:49:28;;;;;;;29.00;18.50;;;;;;;;;;5087105;28;20044;-61
2022/03/23 01:51:54;;;;;;;28.60;18.92;;;;;;;;;;5086039;28;20482;-61
2022/03/23 01:54:20;;;;;;;29.88;19.58;;;;;;;;;;5088800;28;20139;-61
2022/03/23 01:56:47;;;;;;;30.23;19.77;;;;;;;;;;5087850;28;20047;-61
2022/03/23 01:59:13;;;;;;;31.40;19.77;;;;;;;;;;5083729;28;20035;-61
2022/03/23 02:01:40;;;;;;;28.92;18.33;;;;;;;;;;5083162;28;20036;-61
2022/03/23 02:04:06;;;;;;;28.65;18.55;;;;;;;;;;5086296;28;20043;-61
2022/03/23 02:06:32;;;;;;;29.90;19.77;;;;;;;;;;5088057;28;20056;-61
2022/03/23 02:08:58;;;;;;;31.63;20.15;;;;;;;;;;5085530;28;20100;-61
2022/03/23 02:11:24;;;;;;;28.25;19.20;;;;;;;;;;5085947;28;20040;-60
2022/03/23 02:13:53;;;;;;;32.85;19.58;;;;;;;;;;5086927;28;20059;-61
2022/03/23 02:16:19;;;;;;;32.63;19.83;;;;;;;;;;5082395;28;20040;-61
2022/03/23 02:18:45;;;;;;;30.83;18.85;;;;;;;;;;5085962;28;20028;-61
2022/03/23 02:21:14;;;;;;;30.05;18.80;;;6.30;99.90;;;;;;5087702;28;20427;-61
2022/03/23 02:23:40;;;;;;;30.77;18.95;;;;;;;;;;5084932;28;20036;-60
2022/03/23 02:26:07;;;;;;;28.65;18.52;;;;;;;;;;5083566;28;20506;-60
2022/03/23 02:28:34;;;;;;;34.42;19.85;;;;;;;;;;5088616;28;20047;-61
2022/03/23 02:31:01;;;;;;;33.13;20.23;;;;;;;;;;5081344;28;20099;-61
2022/03/23 02:33:27;;;;;;;29.83;18.77;;;;;;;;;;5082414;28;20418;-61
2022/03/23 02:35:53;;;;;;;30.23;19.02;;;;;;;;;;5083612;28;20052;-61
2022/03/23 02:38:19;;;;;;;35.63;20.25;;;;;;;;;;5086235;28;20390;-61
2022/03/23 02:40:46;;;;;;;31.67;18.58;;;;;;;;;;5086295;28;20090;-61
2022/03/23 02:43:12;;;;;;;33.80;19.08;;;;;;;;;;5082664;28;20032;-61
2022/03/23 02:45:38;;;;;;;27.70;17.83;;;;;;;;;;5082645;28;20040;-61
2022/03/23 02:48:05;;;;;;;34.90;19.08;;;;;;;;;;5087840;28;20040;-61
2022/03/23 02:50:32;;;;;;;29.85;17.98;;;;;;;;;;5082972;28;20055;-61
2022/03/23 03:04:18;;;;;;;29.70;18.83;;;;;;;;;;5082687;28;20378;-61
2022/03/23 03:06:45;;;;;;;29.77;18.77;;;;;;;;;;5085056;28;20052;-61
2022/03/23 03:09:12;;;;;;;35.35;18.33;;;;;;;;;;5086820;28;20040;-60
2022/03/23 03:11:38;;;;;;;34.08;21.05;;;;;;;;;;5085795;28;20051;-60
2022/03/23 03:14:04;;;;;;;29.80;18.58;;;;;;;;;;5082062;28;20112;-61
2022/03/23 03:16:31;;;;;;;33.22;19.23;;;;;;;;;;5085105;28;20043;-60
2022/03/23 03:18:57;;;;;;;28.15;17.45;;;;;;;;;;5086515;28;20040;-61
2022/03/23 03:21:23;;;;;;;30.75;17.90;;;;;;;;;;5085236;28;20035;-61
2022/03/23 03:23:49;;;;;;;28.73;18.15;;;;;;;;;;5084022;28;20089;-61
2022/03/23 03:26:16;;;;;;;30.52;20.10;;;5.70;99.90;;;;;;5079357;28;20143;-60
2022/03/23 03:28:43;;;;;;;36.10;19.73;;;;;;;;;;5084836;28;20040;-61
2022/03/23 03:31:10;;;;;;;32.17;18.20;;;;;;;;;;5083619;28;20086;-60
2022/03/23 03:33:36;;;;;;;29.83;17.98;;;;;;;;;;5090664;28;20406;-61
2022/03/23 03:36:03;;;;;;;29.25;17.95;;;;;;;;;;5085654;28;20043;-60
2022/03/23 03:38:30;;;;;;;30.15;17.92;;;;;;;;;;5086689;28;20085;-61
2022/03/23 03:40:57;;;;;;;28.65;17.05;;;;;;;;;;5087785;28;20048;-60
2022/03/23 03:43:24;;;;;;;28.63;17.58;;;;;;;;;;5083006;28;20068;-61
2022/03/23 03:45:50;;;;;;;30.60;17.38;;;;;;;;;;5089677;28;20050;-60
2022/03/23 03:48:17;;;;;;;28.88;18.58;;;;;;;;;;5087887;28;20055;-60
2022/03/23 03:50:44;;;;;;;31.45;18.15;;;;;;;;;;5089610;28;20494;-60
2022/03/23 03:53:10;;;;;;;28.48;17.33;;;;;;;;;;5090172;28;20042;-61
2022/03/23 03:55:37;;;;;;;32.22;18.67;;;;;;;;;;5087981;28;20430;-60
2022/03/23 03:58:03;;;;;;;29.50;18.75;;;;;;;;;;5091674;28;20169;-60
2022/03/23 04:00:30;;;;;;;33.22;19.17;;;;;;;;;;5089380;28;20040;-60
2022/03/23 04:02:56;;;;;;;30.75;19.48;;;;;;;;;;5091700;28;20119;-61
2022/03/23 04:05:23;;;;;;;31.48;19.48;;;;;;;;;;5087143;28;20047;-61
2022/03/23 04:07:49;;;;;;;33.33;19.27;;;;;;;;;;5089461;28;20508;-60
2022/03/23 04:10:15;;;;;;;32.53;18.58;;;;;;;;;;5085015;28;20131;-61
2022/03/23 04:12:41;;;;;;;35.25;18.70;;;;;;;;;;5091966;28;20043;-61
2022/03/23 04:15:07;;;;;;;32.22;19.15;;;;;;;;;;5087546;28;20039;-61
2022/03/23 04:17:33;;;;;;;34.22;19.60;;;;;;;;;;5090025;28;20509;-60
2022/03/23 04:20:00;;;;;;;29.77;18.48;;;;;;;;;;5090230;28;20390;-61
2022/03/23 04:22:26;;;;;;;33.95;19.20;;;;;;;;;;5089893;28;20039;-60
2022/03/23 04:24:52;;;;;;;29.80;18.27;;;;;;;;;;5089106;28;20032;-61
2022/03/23 04:27:18;;;;;;;35.30;20.10;;;;;;;;;;5084652;28;20127;-61
2022/03/23 04:29:44;;;;;;;31.92;18.50;;;;;;;;;;5084868;28;22193;-60
2022/03/23 04:32:10;;;;;;;29.63;18.05;;;;;;;;;;5085545;28;20082;-60
2022/03/23 04:34:36;;;;;;;31.27;19.02;;;;;;;;;;5086322;28;20044;-60
2022/03/23 04:37:03;;;;;;;32.75;19.13;;;;;;;;;;5088237;28;20040;-60
2022/03/23 04:39:29;;;;;;;32.65;18.35;;;;;;;;;;5086482;28;20174;-60
2022/03/23 04:41:55;;;;;;;30.42;17.23;;;;;;;;;;5089359;28;20032;-60
2022/03/23 04:44:21;;;;;;;26.88;17.20;;;;;;;;;;5088610;28;20055;-60
2022/03/23 04:46:47;;;;;;;31.08;18.30;;;;;;;;;;5088749;28;20044;-61
2022/03/23 04:49:14;;;;;;;28.90;17.65;;;;;;;;;;5088982;28;20050;-60
2022/03/23 04:51:40;;;;;;;29.00;18.55;;;;;;;;;;5083731;28;20040;-60
2022/03/23 04:54:06;;;;;;;28.38;17.50;;;;;;;;;;5089779;28;20031;-60
2022/03/23 04:56:32;;;;;;;29.63;17.50;;;;;;;;;;5089965;28;20040;-60
2022/03/23 04:58:59;;;;;;;28.10;16.92;;;;;;;;;;5081430;28;20032;-61
2022/03/23 05:01:25;;;;;;;29.10;16.95;;;;;;;;;;5082682;28;20067;-60
2022/03/23 05:03:52;;;;;;;29.63;17.60;;;;;;;;;;5084420;28;20036;-60
2022/03/23 05:06:18;;;;;;;27.70;17.00;;;;;;;;;;5087977;28;20060;-60
2022/03/23 05:08:44;;;;;;;30.90;17.08;;;;;;;;;;5085938;28;20055;-61
2022/03/23 05:11:10;;;;;;;30.75;17.42;;;;;;;;;;5088099;28;20051;-61
2022/03/23 05:13:37;;;;;;;30.45;17.60;;;;;;;;;;5084303;28;20044;-61
2022/03/23 05:16:03;;;;;;;30.25;18.23;;;;;;;;;;5088697;28;20044;-61
2022/03/23 05:18:29;;;;;;;29.42;17.70;;;;;;;;;;5080340;28;20764;-60
2022/03/23 05:20:55;;;;;;;37.25;19.17;;;;;;;;;;5084706;28;20037;-61
2022/03/23 05:23:21;;;;;;;28.33;18.55;;;;;;;;;;5089558;28;20371;-61
2022/03/23 05:25:47;;;;;;;34.40;19.38;;;;;;;;;;5089078;28;20517;-60
2022/03/23 05:28:13;;;;;;;32.10;17.80;;;;;;;;;;5087340;28;20083;-60
2022/03/23 05:30:40;;;;;;;33.72;17.85;;;;;;;;;;5084339;28;20059;-60
2022/03/23 05:33:06;;;;;;;29.98;17.35;;;;;;;;;;5086219;28;20036;-60
2022/03/23 05:35:32;;;;;;;28.48;17.63;;;;;;;;;;5086282;28;20069;-61
2022/03/23 05:37:58;;;;;;;28.13;17.60;;;;;;;;;;5086973;28;20044;-60
2022/03/23 05:40:24;;;;;;;32.97;17.95;;;;;;;;;;5086045;28;20033;-61
2022/03/23 05:42:50;;;;;;;30.55;17.48;;;;;;;;;;5084802;28;20123;-60
2022/03/23 05:45:17;;;;;;;32.13;19.42;;;;;;;;;;5086444;28;20433;-60
2022/03/23 05:47:43;;;;;;;41.55;18.95;;;;;;;;;;5087421;28;20399;-60
2022/03/23 05:50:10;;;;;;;33.42;18.48;;;;;;;;;;5084088;28;20486;-60
2022/03/23 05:52:37;;;;;;;32.33;19.90;;;;;;;;;;5088562;28;20043;-60
2022/03/23 05:55:05;;;;;;;32.47;18.30;;;;;;;;;;5087065;28;20390;-61
2022/03/23 05:57:31;;;;;;;33.13;18.70;;;;;;;;;;5079307;28;20097;-61
2022/03/23 05:59:57;;;;;;;31.40;18.60;;;;;;;;;;5081467;28;20032;-61
2022/03/23 06:02:23;;;;;;;27.85;17.45;;;;;;;;;;5079784;28;20112;-61
2022/03/23 06:04:50;;;;;;;28.80;17.70;;;;;;;;;;5082881;28;20077;-61
2022/03/23 06:07:16;;;;;;;30.88;18.63;;;;;;;;;;5083503;28;20055;-61
2022/03/23 06:09:42;;;;;;;30.08;17.75;;;;;;;;;;5088103;28;20052;-61
2022/03/23 06:12:12;;;;;;;31.35;18.83;;;;;;;;;;5086269;28;20047;-61
2022/03/23 06:14:38;;;;;;;32.55;19.00;;;;;;;;;;5086344;28;20093;-60
2022/03/23 06:17:06;;;;;;;35.30;19.67;;;;;;;;;;5090086;28;20052;-61
2022/03/23 06:19:32;;;;;;;30.92;18.92;;;;;;;;;;5085888;28;20070;-61
2022/03/23 06:21:58;;;;;;;32.47;19.60;;;;;;;;;;5086566;28;20084;-61
2022/03/23 06:24:24;;;;;;;35.55;19.83;;;;;;;;;;5085926;28;20479;-61
2022/03/23 06:26:50;;;;;;;31.70;19.75;;;;;;;;;;5090026;28;20042;-61
2022/03/23 06:29:16;;;;;;;34.08;19.45;;;;;;;;;;5084912;28;20050;-61
2022/03/23 06:31:43;;;;;;;36.15;20.85;;;;;;;;;;5090096;28;20044;-60
2022/03/23 06:34:09;;;;;;;36.03;21.85;;;;;;;;;;5081863;28;20189;-61
2022/03/23 06:36:35;;;;;;;42.10;23.00;;;;;;;;;;5084398;28;20038;-61
2022/03/23 06:39:02;;;;;;;35.00;21.65;;;;;;;;;;5083087;28;20036;-61
2022/03/23 06:41:28;;;;;;;37.90;21.67;;;;;;;;;;5087640;28;20036;-61
2022/03/23 06:43:54;;;;;;;39.67;22.88;;;;;;;;;;5087926;28;20487;-62
2022/03/23 06:46:20;;;;;;;36.45;22.42;;;;;;;;;;5082864;28;20055;-60
2022/03/23 06:48:47;;;;;;;34.95;21.25;;;;;;;;;;5084252;28;20043;-60
2022/03/23 06:51:13;;;;;;;37.55;22.05;;;;;;;;;;5089851;28;20485;-60
2022/03/23 06:53:39;;;;;;;39.20;22.13;;;;;;;;;;5087147;28;20138;-61
2022/03/23 06:56:05;;;;;;;36.75;22.55;;;;;;;;;;5087410;28;20212;-61
2022/03/23 06:58:31;;;;;;;37.13;23.05;;;;;;;;;;5085186;28;20100;-61
2022/03/23 07:00:58;;;;;;;41.72;23.77;;;;;;;;;;5087323;28;20039;-61
2022/03/23 07:03:24;;;;;;;37.53;23.23;;;;;;;;;;5088389;28;20092;-60
2022/03/23 07:05:50;;;;;;;37.88;22.55;;;;;;;;;;5088666;28;20192;-61
2022/03/23 07:11:01;;;;;;;39.00;23.63;;;;;;;;;;5081425;28;20052;-60
2022/03/23 07:13:27;;;;;;;40.65;23.58;;;;;;;;;;5090098;28;20402;-61
2022/03/23 07:15:54;;;;;;;40.85;24.73;;;;;;;;;;5086179;28;20105;-61
2022/03/23 07:18:20;;;;;;;39.45;24.17;;;;;;;;;;5090137;28;20032;-61
2022/03/23 07:20:46;;;;;;;42.25;25.85;;;;;;;;;;5087567;28;20209;-61
2022/03/23 07:23:12;;;;;;;42.33;24.35;;;;;;;;;;5091226;28;20764;-61
2022/03/23 07:25:38;;;;;;;41.40;24.02;;;;;;;;;;5086744;28;20049;-60
2022/03/23 07:28:04;;;;;;;41.35;23.83;;;;;;;;;;5083158;28;20097;-61
2022/03/23 07:30:33;;;;;;;38.35;23.95;;;;;;;;;;5087430;28;20040;-61
2022/03/23 07:32:59;;;;;;;39.15;23.73;;;;;;;;;;5093085;28;20036;-61
2022/03/23 07:35:25;;;;;;;35.22;23.80;;;;;;;;;;5088895;28;20043;-61
2022/03/23 07:37:51;;;;;;;37.67;23.40;;;;;;;;;;5086000;28;20487;-61
2022/03/23 07:40:17;;;;;;;39.55;23.23;;;;;;;;;;5088326;28;20043;-61
2022/03/23 07:42:43;;;;;;;38.97;24.20;;;;;;;;;;5089642;28;20036;-62
2022/03/23 07:45:10;;;;;;;44.83;24.63;;;;;;;;;;5087011;28;20037;-61
2022/03/23 07:47:36;;;;;;;44.92;23.75;;;;;;;;;;5091340;28;20083;-61
2022/03/23 07:50:02;;;;;;;38.22;23.58;;;;;;;;;;5084741;28;20043;-60
2022/03/23 07:52:28;;;;;;;45.33;24.98;;;;;;;;;;5090267;28;20032;-61
2022/03/23 07:54:54;;;;;;;45.97;24.40;;;;;;;;;;5090524;28;20081;-61
2022/03/23 07:57:20;;;;;;;36.05;22.90;;;;;;;;;;5090881;28;20067;-61
2022/03/23 07:59:46;;;;;;;32.13;22.65;;;;;;;;;;5092992;28;20126;-61
2022/03/23 08:02:12;;;;;;;37.67;23.33;;;;;;;;;;5090199;28;20036;-61
2022/03/23 08:04:39;;;;;;;35.85;23.40;;;;;;;;;;5090963;28;20125;-60
2022/03/23 08:07:05;;;;;;;34.03;23.00;;;;;;;;;;5092446;28;20090;-61
2022/03/23 08:09:31;;;;;;;39.50;24.08;;;;;;;;;;5092202;28;20052;-61
2022/03/23 08:11:58;;;;;;;35.35;23.58;;;11.80;99.90;;;;;;5090015;28;20036;-61
2022/03/23 08:14:24;;;;;;;36.67;22.50;;;;;;;;;;5086674;28;20036;-61
2022/03/23 08:16:52;;;;;;;42.45;23.00;;;;;;;;;;5091149;28;20044;-61
2022/03/23 08:19:18;;;;;;;45.65;22.92;;;;;;;;;;5091417;28;20036;-60
2022/03/23 08:21:44;;;;;;;35.25;22.30;;;;;;;;;;5089538;28;20444;-60
2022/03/23 08:24:10;;;;;;;37.00;21.25;;;;;;;;;;5088018;28;20032;-61
2022/03/23 08:26:36;;;;;;;31.30;21.50;;;;;;;;;;5088133;28;20040;-61
2022/03/23 08:29:02;;;;;;;32.88;20.58;;;;;;;;;;5090520;28;20040;-61
2022/03/23 08:31:29;;;;;;;48.75;23.33;;;;;;;;;;5092486;28;20486;-61
2022/03/23 08:33:55;;;;;;;30.52;21.65;;;;;;;;;;5082718;28;20059;-61
2022/03/23 08:36:21;;;;;;;37.63;22.23;;;;;;;;;;5091153;28;20040;-61
2022/03/23 08:38:47;;;;;;;34.58;21.45;;;;;;;;;;5091965;28;20119;-61
2022/03/23 08:41:14;;;;;;;48.00;21.85;;;;;;;;;;5091123;28;20119;-61
2022/03/23 08:43:41;;;;;;;44.00;22.45;;;;;;;;;;5088953;28;20032;-61
2022/03/23 08:46:08;;;;;;;42.60;21.20;;;;;;;;;;5091544;28;20097;-60
2022/03/23 08:48:34;;;;;;;31.40;21.70;;;;;;;;;;5087187;28;20060;-61
2022/03/23 08:51:01;;;;;;;45.05;21.98;;;;;;;;;;5087777;28;20064;-60
2022/03/23 08:53:27;;;;;;;28.60;20.52;;;;;;;;;;5089850;28;20056;-61
2022/03/23 08:55:53;;;;;;;31.55;20.27;;;;;;;;;;5088483;28;20403;-61
2022/03/23 08:58:19;;;;;;;31.52;20.08;;;;;;;;;;5090310;28;20032;-61
2022/03/23 09:00:46;;;;;;;30.15;19.50;;;;;;;;;;5091840;28;20632;-61
2022/03/23 09:03:12;;;;;;;24.67;18.45;;;;;;;;;;5091247;28;20043;-60
2022/03/23 09:05:38;;;;;;;27.67;20.38;;;;;;;;;;5091685;28;20039;-62
2022/03/23 09:08:04;;;;;;;25.80;19.00;;;;;;;;;;5091084;28;20048;-61
2022/03/23 09:10:30;;;;;;;25.50;18.20;;;;;;;;;;5092086;28;20111;-62
2022/03/23 09:12:56;;;;;;;23.60;17.80;;;;;;;;;;5092071;28;20451;-61
2022/03/23 09:15:23;;;;;;;21.85;16.52;;;;;;;;;;5090053;28;20075;-61
2022/03/23 09:17:49;;;;;;;22.35;17.20;;;;;;;;;;5091635;28;20044;-61
2022/03/23 09:20:16;;;;;;;23.35;16.92;;;;;;;;;;5091146;28;20051;-61
2022/03/23 09:22:44;;;;;;;19.98;15.65;;;;;;;;;;5091855;28;20036;-61
2022/03/23 09:25:12;;;;;;;21.75;15.25;;;16.60;99.90;;;;;;5090629;28;20066;-60
2022/03/23 09:27:40;;;;;;;20.77;16.73;;;16.70;99.90;;;;;;5091353;28;20487;-61
2022/03/23 09:30:07;;;;;;;20.60;15.30;;;;;;;;;;5090747;28;20046;-60
2022/03/23 09:32:33;;;;;;;24.85;15.23;;;;;;;;;;5089986;28;20467;-61
2022/03/23 09:34:59;;;;;;;26.77;16.00;;;;;;;;;;5090417;28;20047;-61
2022/03/23 09:40:10;;;;;;;23.02;16.00;;;;;;;;;;5091231;28;20397;-60
2022/03/23 09:42:36;;;;;;;26.15;16.55;;;;;;;;;;5090779;28;20075;-60
2022/03/23 09:45:03;;;;;;;17.67;14.52;;;;;;;;;;5090680;28;20064;-61
2022/03/23 09:47:29;;;;;;;26.65;15.60;;;;;;;;;;5087969;28;20048;-61
2022/03/23 09:49:55;;;;;;;26.23;15.70;;;;;;;;;;5091164;28;20467;-61
2022/03/23 09:52:21;;;;;;;20.85;15.40;;;;;;;;;;5091163;28;20047;-62
2022/03/23 09:54:47;;;;;;;18.55;14.70;;;;;;;;;;5091077;28;20036;-61
2022/03/23 09:57:13;;;;;;;19.02;14.80;;;18.50;96.70;;;;;;5090692;28;20047;-60
2022/03/23 09:59:42;;;;;;;20.00;15.20;;;19.00;96.80;;;;;;5090590;28;20032;-61
2022/03/23 10:02:12;;;;;;;21.60;15.77;;;;;;;;;;5091184;28;20383;-61
2022/03/23 10:04:50;;;;;;;19.80;14.38;;;19.00;93.20;;;;;;5087627;28;20161;-61
2022/03/23 10:07:20;;;;;;;21.85;14.70;;;;;;;;;;5090363;28;20088;-61
2022/03/23 10:09:46;;;;;;;21.85;14.98;;;;;;;;;;5088622;28;20043;-61
2022/03/23 10:12:21;;;;;;;17.77;14.35;;;;;;;;;;5090564;28;20501;-61
2022/03/23 10:15:06;;;;;;;20.83;14.80;;;;;;;;;;5090474;28;20043;-61
2022/03/23 10:17:50;;;;;;;20.05;14.65;;;19.40;91.50;;;;;;5090341;28;20125;-61
2022/03/23 10:20:16;;;;;;;17.92;15.18;;;;;;;;;;5089003;28;20039;-62
2022/03/23 10:23:00;;;;;;;19.55;14.90;;;20.00;91.80;;;;;;5089600;28;20032;-61
2022/03/23 10:25:29;;;;;;;21.73;14.85;;;;;;;;;;5088961;28;20156;-61
2022/03/23 10:27:56;;;;;;;20.63;15.75;;;20.30;91.30;;;;;;5089906;28;20036;-62
2022/03/23 10:30:35;;;;;;;19.60;15.00;;;20.80;91.40;;;;;;5089637;28;20454;-61
2022/03/23 10:33:02;;;;;;;20.45;14.73;;;;;;;;;;5089857;28;20571;-61
2022/03/23 10:35:38;;;;;;;20.77;15.50;;;21.10;90.70;;;;;;5089954;28;20093;-62
2022/03/23 10:38:11;;;;;;;18.08;14.98;;;;;;;;;;5088620;28;20043;-61
2022/03/23 10:40:37;;;;;;;20.48;15.32;;;;;;;;;;5088274;28;20510;-61
2022/03/23 10:43:03;;;;;;;17.27;14.88;;;;;;;;;;5094592;28;20089;-61
2022/03/23 10:45:32;;;;;;;17.50;13.70;;;;;;;;;;5094403;28;20371;-61
2022/03/23 10:48:07;;;;;;;22.52;14.30;;;;;;;;;;5093377;28;20044;-62
2022/03/23 10:50:33;;;;;;;18.25;14.30;;;;;;;;;;5093545;28;20090;-61
2022/03/23 10:53:01;;;;;;;17.40;14.32;;;;;;;;;;5092548;28;20044;-62
2022/03/23 10:55:29;;;;;;;22.58;12.70;;;21.90;84.40;;;;;;5093977;28;20043;-61
2022/03/23 10:58:01;;;;;;;16.65;13.65;;;22.00;82.20;;;;;;5094135;28;20047;-61
2022/03/23 11:00:32;;;;;;;19.13;12.30;;;;;;;;;;5094447;28;20040;-62
2022/03/23 11:02:58;;;;;;;19.17;13.03;;;;;;;;;;5094255;28;20101;-61
2022/03/23 11:05:33;;;;;;;16.05;12.80;;;22.50;79.70;;;;;;5094278;28;20093;-62
2022/03/23 11:08:09;;;;;;;17.65;11.27;;;;;;;;;;5090252;28;20498;-62
2022/03/23 11:16:23;;;;;;;22.45;12.43;;;;;;;;;;5093348;28;20080;-62
2022/03/23 11:18:49;;;;;;;17.00;12.32;;;;;;;;;;5093796;28;20051;-62
2022/03/23 11:21:16;;;;;;;18.85;12.52;;;;;;;;;;5093127;28;20134;-62
2022/03/23 11:23:42;;;;;;;19.48;12.48;;;;;;;;;;5093831;28;20047;-61
2022/03/23 11:26:09;;;;;;;15.05;12.07;;;;;;;;;;5093622;28;20138;-62
2022/03/23 11:28:40;;;;;;;17.48;11.98;;;23.60;78.40;;;;;;5093898;28;20048;-62
2022/03/23 11:31:12;;;;;;;19.77;12.70;;;24.10;78.30;;;;;;5093288;28;20044;-62
2022/03/23 11:33:38;;;;;;;19.02;10.52;;;;;;;;;;5093644;28;20047;-62
2022/03/23 11:36:10;;;;;;;20.33;10.13;;;;;;;;;;5093255;28;20121;-62
2022/03/23 11:38:37;;;;;;;18.73;10.50;;;24.60;76.60;;;;;;5093585;28;20075;-62
2022/03/23 11:41:03;;;;;;;22.08;11.80;;;;;;;;;;5093337;28;20085;-62
2022/03/23 11:43:30;;;;;;;17.95;10.55;;;24.70;74.30;;;;;;5092706;28;20039;-62
2022/03/23 11:45:57;;;;;;;18.95;11.07;;;24.80;75.40;;;;;;5093414;28;20385;-62
2022/03/23 11:48:27;;;;;;;21.13;11.60;;;;;;;;;;5092943;28;20471;-62
2022/03/23 11:51:11;;;;;;;19.27;11.15;;;24.50;85.10;;;;;;5093432;28;20064;-61
2022/03/23 11:53:39;;;;;;;17.20;11.10;;;;;;;;;;5092365;28;20466;-61
2022/03/23 11:56:06;;;;;;;21.30;11.20;;;;;;;;;;5088660;28;20070;-62
2022/03/23 11:58:37;;;;;;;17.48;10.55;;;25.30;74.10;;;;;;5092163;28;20447;-62
2022/03/23 12:01:30;;;;;;;21.30;11.45;;;25.50;75.30;;;;;;5092960;28;20085;-62
2022/03/23 12:04:04;;;;;;;21.75;9.65;;;;;;;;;;5087087;28;20036;-61
2022/03/23 12:06:42;;;;;;;19.63;10.43;;;;;;;;;;5090656;28;20563;-62
2022/03/23 12:09:08;;;;;;;18.25;10.00;;;;;;;;;;5092764;28;20055;-62
2022/03/23 12:11:54;;;;;;;20.42;10.60;;;;;;;;;;5092333;28;20398;-62
2022/03/23 12:14:24;;;;;;;20.92;10.68;;;25.50;73.40;;;;;;5090583;28;20050;-62
2022/03/23 12:16:50;;;;;;;18.83;10.60;;;25.30;83.90;;;;;;5092443;28;20040;-62
2022/03/23 12:19:19;;;;;;;21.17;10.70;;;;;;;;;;5092675;28;20058;-62
2022/03/23 12:22:07;;;;;;;19.80;10.60;;;25.20;71.60;;;;;;5092015;28;20047;-61
2022/03/23 12:24:41;;;;;;;20.35;10.38;;;25.00;73.50;;;;;;5090541;28;20497;-62
2022/03/23 12:27:32;;;;;;;18.60;9.93;;;;;;;;;;5092615;28;20437;-62
2022/03/23 12:30:01;;;;;;;22.50;9.75;;;24.90;76.30;;;;;;5092064;28;20044;-62
2022/03/23 12:32:37;;;;;;;17.23;8.48;;;25.10;73.40;;;;;;5092409;28;20044;-62
2022/03/23 12:35:04;;;;;;;18.15;7.07;;;;;;;;;;5091824;28;20063;-62
2022/03/23 12:37:39;;;;;;;28.73;8.23;;;25.00;73.40;;;;;;5091765;28;20040;-62
2022/03/23 12:40:09;;;;;;;17.58;7.30;;;25.00;71.70;;;;;;5091060;28;20032;-62
2022/03/23 12:42:43;;;;;;;20.13;9.10;;;24.80;73.30;;;;;;5092066;28;20066;-62
2022/03/23 12:45:13;;;;;;;15.05;8.00;;;;;;;;;;5092008;28;20036;-62
2022/03/23 12:47:48;;;;;;;17.92;9.07;;;;;;;;;;5091174;28;20056;-61
2022/03/23 12:58:33;;;;;;;17.80;8.48;;;25.30;83.10;;;;;;5090272;28;20383;-62
2022/03/23 13:01:09;;;;;;;20.83;8.85;;;25.50;73.60;;;;;;5090850;28;20502;-62
2022/03/23 13:03:41;;;;;;;15.88;8.50;;;;;;;;;;5087955;28;20079;-62
2022/03/23 13:06:11;;;;;;;16.58;8.02;;;;;;;;;;5089087;28;20036;-62
2022/03/23 13:08:42;;;;;;;18.42;8.10;;;28.30;72.70;;;;;;5091153;28;20052;-62
2022/03/23 13:11:10;;;;;;;19.10;7.70;;;;;;;;;;5091374;28;20760;-62
2022/03/23 13:13:36;;;;;;;18.75;7.93;;;;;;;;;;5086636;28;20047;-62
2022/03/23 13:16:03;;;;;;;16.67;7.70;;;;;;;;;;5089740;28;20503;-62
2022/03/23 13:18:30;;;;;;;15.93;7.22;;;;;;;;;;5091611;28;20121;-62
2022/03/23 13:20:57;;;;;;;17.55;6.55;;;;;;;;;;5091582;28;20036;-62
2022/03/23 13:23:24;;;;;;;41.10;8.13;;;;;;;;;;5091384;28;20036;-62
2022/03/23 13:26:16;;;;;;;15.90;6.32;;;;;;;;;;5091547;28;20157;-62
2022/03/23 13:28:54;;;;;;;21.50;6.70;;;30.60;66.10;;;;;;5088498;28;20503;-62
2022/03/23 13:31:30;;;;;;;24.45;6.47;;;30.50;66.10;;;;;;5089804;28;20406;-62
2022/03/23 13:33:55;;;;;;;41.95;7.70;;;30.50;73.40;;;;;;5091240;28;20097;-62
2022/03/23 13:36:24;;;;;;;16.65;6.32;;;29.60;66.30;;;;;;5091091;28;20032;-62
2022/03/23 13:38:51;;;;;;;14.73;6.15;;;;;;;;;;5091365;28;20045;-62
2022/03/23 13:44:03;;;;;;;15.75;6.35;;;;;;;;;;5091010;28;20035;-62
2022/03/23 13:46:30;;;;;;;15.85;6.60;;;29.80;73.70;;;;;;5090911;28;20039;-63
2022/03/23 13:49:03;;;;;;;17.77;6.13;;;30.20;64.40;;;;;;5086697;28;20123;-62
2022/03/23 13:51:34;;;;;;;18.95;6.50;;;;;;;;;;5089112;28;20126;-62
2022/03/23 13:54:03;;;;;;;15.68;6.88;;;29.80;66.30;;;;;;5089694;28;20040;-63
2022/03/23 13:56:31;;;;;;;18.60;6.80;;;;;;;;;;5090627;28;20067;-63
2022/03/23 13:58:57;;;;;;;19.90;7.00;;;;;;;;;;5091142;28;20035;-63
2022/03/23 14:01:24;;;;;;;17.60;7.10;;;30.10;68.70;;;;;;5085894;28;20039;-62
2022/03/23 14:03:51;;;;;;;15.45;7.68;;;31.20;75.20;;;;;;5090803;28;20101;-62
2022/03/23 14:06:18;;;;;;;18.08;8.02;;;32.00;74.40;;;;;;5090364;28;20097;-62
2022/03/23 14:08:53;;;;;;;13.98;7.38;;;31.60;73.40;;;;;;5089105;28;20529;-63
2022/03/23 14:11:20;;;;;;;23.17;8.75;;;;;;;;;;5088387;28;20108;-63
2022/03/23 14:13:52;;;;;;;16.13;8.40;;;33.60;62.90;;;;;;5090650;28;20039;-63
2022/03/23 14:16:23;;;;;;;19.63;8.80;;;33.60;61.90;;;;;;5089993;28;20071;-62
2022/03/23 14:18:48;;;;;;;15.33;8.73;;;33.60;71.20;;;;;;5090407;28;20040;-63
2022/03/23 14:21:24;;;;;;;15.32;8.23;;;;;;;;;;5090409;28;20285;-63
2022/03/23 14:23:51;;;;;;;16.88;8.75;;;;;;;;;;5088985;28;20393;-63
2022/03/23 14:26:23;;;;;;;16.63;7.93;;;;;;;;;;5090565;28;20115;-63
2022/03/23 14:28:49;;;;;;;16.02;8.20;;;;;;;;;;5086588;28;20500;-62
2022/03/23 14:31:21;;;;;;;15.38;7.65;;;31.80;59.40;;;;;;5082070;28;20036;-62
2022/03/23 14:34:05;;;;;;;18.88;8.32;;;31.30;60.60;;;;;;5085938;28;20051;-62
2022/03/23 14:36:30;;;;;;;20.30;8.32;;;30.60;71.10;;;;;;5087689;28;20512;-62